sensor_id;sensor_type;location;lat;lon;timestamp;P1;durP1;ratioP1;P2;durP2;ratioP2
5475;SDS011;2760;50.000;9.194;2023-04-10T00:02:20;14.60;;;8.97;;
5475;SDS011;2760;50.000;9.194;2023-04-10T00:04:47;15.50;;;9.37;;
5475;SDS011;2760;50.000;9.194;2023-04-10T00:07:15;13.20;;;9.10;;
5475;SDS011;2760;50.000;9.194;2023-04-10T00:09:42;12.33;;;7.90;;
5475;SDS011;2760;50.000;9.194;2023-04-10T00:12:09;12.13;;;8.63;;
5475;SDS011;2760;50.000;9.194;2023-04-10T00:14:36;17.10;;;9.23;;
5475;SDS011;2760;50.000;9.194;2023-04-10T00:17:04;14.90;;;8.13;;
5475;SDS011;2760;50.000;9.194;2023-04-10T00:19:31;14.47;;;9.17;;
5475;SDS011;2760;50.000;9.194;2023-04-10T00:21:58;12.60;;;9.03;;
5475;SDS011;2760;50.000;9.194;2023-04-10T00:24:27;23.37;;;9.73;;
5475;SDS011;2760;50.000;9.194;2023-04-10T00:26:54;14.70;;;10.07;;
5475;SDS011;2760;50.000;9.194;2023-04-10T00:29:21;12.27;;;9.13;;
5475;SDS011;2760;50.000;9.194;2023-04-10T00:31:48;14.87;;;10.30;;
5475;SDS011;2760;50.000;9.194;2023-04-10T00:34:15;11.70;;;8.67;;
5475;SDS011;2760;50.000;9.194;2023-04-10T00:36:43;15.30;;;9.60;;
5475;SDS011;2760;50.000;9.194;2023-04-10T00:39:10;10.53;;;8.27;;
5475;SDS011;2760;50.000;9.194;2023-04-10T00:41:40;14.67;;;9.73;;
5475;SDS011;2760;50.000;9.194;2023-04-10T00:44:07;12.77;;;8.80;;
5475;SDS011;2760;50.000;9.194;2023-04-10T00:46:34;12.93;;;8.67;;
5475;SDS011;2760;50.000;9.194;2023-04-10T00:49:03;15.50;;;9.40;;
5475;SDS011;2760;50.000;9.194;2023-04-10T00:51:31;14.87;;;10.07;;
5475;SDS011;2760;50.000;9.194;2023-04-10T00:53:58;13.30;;;9.30;;
5475;SDS011;2760;50.000;9.194;2023-04-10T00:56:26;13.90;;;9.40;;
5475;SDS011;2760;50.000;9.194;2023-04-10T00:58:56;13.90;;;9.27;;
5475;SDS011;2760;50.000;9.194;2023-04-10T01:01:24;13.57;;;8.90;;
5475;SDS011;2760;50.000;9.194;2023-04-10T01:03:51;15.60;;;9.00;;
5475;SDS011;2760;50.000;9.194;2023-04-10T01:06:21;12.30;;;8.37;;
5475;SDS011;2760;50.000;9.194;2023-04-10T01:08:54;14.23;;;9.03;;
5475;SDS011;2760;50.000;9.194;2023-04-10T01:11:27;15.20;;;9.90;;
5475;SDS011;2760;50.000;9.194;2023-04-10T01:14:06;13.00;;;8.70;;
5475;SDS011;2760;50.000;9.194;2023-04-10T01:16:41;13.77;;;8.97;;
5475;SDS011;2760;50.000;9.194;2023-04-10T01:19:21;13.03;;;7.20;;
5475;SDS011;2760;50.000;9.194;2023-04-10T01:21:57;14.50;;;8.40;;
5475;SDS011;2760;50.000;9.194;2023-04-10T01:24:36;13.67;;;8.57;;
5475;SDS011;2760;50.000;9.194;2023-04-10T01:27:19;14.23;;;9.57;;
5475;SDS011;2760;50.000;9.194;2023-04-10T01:30:00;11.87;;;8.57;;
5475;SDS011;2760;50.000;9.194;2023-04-10T01:32:29;15.23;;;9.53;;
5475;SDS011;2760;50.000;9.194;2023-04-10T01:35:00;12.10;;;8.30;;
5475;SDS011;2760;50.000;9.194;2023-04-10T01:37:33;21.43;;;10.20;;
5475;SDS011;2760;50.000;9.194;2023-04-10T01:40:04;15.53;;;9.40;;
5475;SDS011;2760;50.000;9.194;2023-04-10T01:42:37;12.80;;;9.00;;
5475;SDS011;2760;50.000;9.194;2023-04-10T01:45:11;14.10;;;8.83;;
5475;SDS011;2760;50.000;9.194;2023-04-10T01:47:44;14.27;;;9.60;;
5475;SDS011;2760;50.000;9.194;2023-04-10T01:50:11;14.00;;;8.77;;
5475;SDS011;2760;50.000;9.194;2023-04-10T01:52:40;13.07;;;9.40;;
5475;SDS011;2760;50.000;9.194;2023-04-10T01:55:18;13.80;;;9.47;;
5475;SDS011;2760;50.000;9.194;2023-04-10T01:58:00;12.80;;;8.97;;
5475;SDS011;2760;50.000;9.194;2023-04-10T02:00:30;11.80;;;8.50;;
5475;SDS011;2760;50.000;9.194;2023-04-10T02:03:03;15.90;;;9.60;;
5475;SDS011;2760;50.000;9.194;2023-04-10T02:05:32;14.67;;;9.00;;
5475;SDS011;2760;50.000;9.194;2023-04-10T02:08:07;11.10;;;8.27;;
5475;SDS011;2760;50.000;9.194;2023-04-10T02:10:42;13.93;;;7.93;;
5475;SDS011;2760;50.000;9.194;2023-04-10T02:13:15;12.40;;;8.20;;
5475;SDS011;2760;50.000;9.194;2023-04-10T02:15:49;14.73;;;9.10;;
5475;SDS011;2760;50.000;9.194;2023-04-10T02:18:17;15.23;;;9.00;;
5475;SDS011;2760;50.000;9.194;2023-04-10T02:20:46;13.00;;;9.37;;
5475;SDS011;2760;50.000;9.194;2023-04-10T02:23:14;15.90;;;9.17;;
5475;SDS011;2760;50.000;9.194;2023-04-10T02:25:42;13.27;;;8.50;;
5475;SDS011;2760;50.000;9.194;2023-04-10T02:28:09;12.87;;;8.40;;
5475;SDS011;2760;50.000;9.194;2023-04-10T02:30:36;13.67;;;8.53;;
5475;SDS011;2760;50.000;9.194;2023-04-10T02:33:04;11.27;;;8.27;;
5475;SDS011;2760;50.000;9.194;2023-04-10T02:35:32;10.67;;;8.13;;
5475;SDS011;2760;50.000;9.194;2023-04-10T02:38:01;13.63;;;9.03;;
5475;SDS011;2760;50.000;9.194;2023-04-10T02:40:30;15.93;;;9.60;;
5475;SDS011;2760;50.000;9.194;2023-04-10T02:43:08;14.10;;;8.63;;
5475;SDS011;2760;50.000;9.194;2023-04-10T02:45:35;13.90;;;8.70;;
5475;SDS011;2760;50.000;9.194;2023-04-10T02:48:05;11.10;;;7.63;;
5475;SDS011;2760;50.000;9.194;2023-04-10T02:50:33;13.77;;;9.00;;
5475;SDS011;2760;50.000;9.194;2023-04-10T02:53:00;15.13;;;8.80;;
5475;SDS011;2760;50.000;9.194;2023-04-10T02:55:27;14.47;;;9.63;;
5475;SDS011;2760;50.000;9.194;2023-04-10T02:57:56;14.40;;;9.67;;
5475;SDS011;2760;50.000;9.194;2023-04-10T03:00:23;16.33;;;9.90;;
5475;SDS011;2760;50.000;9.194;2023-04-10T03:03:10;12.97;;;9.30;;
5475;SDS011;2760;50.000;9.194;2023-04-10T03:05:45;14.20;;;8.40;;
5475;SDS011;2760;50.000;9.194;2023-04-10T03:08:14;22.33;;;9.90;;
5475;SDS011;2760;50.000;9.194;2023-04-10T03:10:43;13.37;;;8.20;;
5475;SDS011;2760;50.000;9.194;2023-04-10T03:13:12;16.53;;;9.77;;
5475;SDS011;2760;50.000;9.194;2023-04-10T03:15:39;13.87;;;9.37;;
5475;SDS011;2760;50.000;9.194;2023-04-10T03:18:07;16.70;;;10.40;;
5475;SDS011;2760;50.000;9.194;2023-04-10T03:20:38;12.17;;;9.37;;
5475;SDS011;2760;50.000;9.194;2023-04-10T03:23:05;15.47;;;9.87;;
5475;SDS011;2760;50.000;9.194;2023-04-10T03:29:20;13.70;;;8.50;;
5475;SDS011;2760;50.000;9.194;2023-04-10T03:31:47;12.70;;;8.57;;
5475;SDS011;2760;50.000;9.194;2023-04-10T03:34:15;15.67;;;9.80;;
5475;SDS011;2760;50.000;9.194;2023-04-10T03:36:44;13.00;;;8.67;;
5475;SDS011;2760;50.000;9.194;2023-04-10T03:39:11;19.50;;;10.47;;
5475;SDS011;2760;50.000;9.194;2023-04-10T03:41:38;15.37;;;9.67;;
5475;SDS011;2760;50.000;9.194;2023-04-10T03:44:05;16.03;;;9.63;;
5475;SDS011;2760;50.000;9.194;2023-04-10T03:46:33;16.90;;;9.80;;
5475;SDS011;2760;50.000;9.194;2023-04-10T03:49:00;17.70;;;9.53;;
5475;SDS011;2760;50.000;9.194;2023-04-10T03:51:30;11.53;;;7.40;;
5475;SDS011;2760;50.000;9.194;2023-04-10T03:53:59;14.70;;;8.17;;
5475;SDS011;2760;50.000;9.194;2023-04-10T03:56:27;16.10;;;10.27;;
5475;SDS011;2760;50.000;9.194;2023-04-10T03:58:54;14.70;;;10.10;;
5475;SDS011;2760;50.000;9.194;2023-04-10T04:01:22;14.20;;;9.20;;
5475;SDS011;2760;50.000;9.194;2023-04-10T04:03:58;18.47;;;10.43;;
5475;SDS011;2760;50.000;9.194;2023-04-10T04:06:44;18.60;;;9.87;;
5475;SDS011;2760;50.000;9.194;2023-04-10T04:09:32;15.53;;;9.00;;
5475;SDS011;2760;50.000;9.194;2023-04-10T04:12:16;16.13;;;10.53;;
5475;SDS011;2760;50.000;9.194;2023-04-10T04:15:01;14.93;;;9.83;;
5475;SDS011;2760;50.000;9.194;2023-04-10T04:17:50;18.17;;;10.50;;
5475;SDS011;2760;50.000;9.194;2023-04-10T04:20:43;18.67;;;11.70;;
5475;SDS011;2760;50.000;9.194;2023-04-10T04:23:19;16.57;;;9.10;;
5475;SDS011;2760;50.000;9.194;2023-04-10T04:26:06;17.87;;;10.40;;
5475;SDS011;2760;50.000;9.194;2023-04-10T04:28:57;16.20;;;10.20;;
5475;SDS011;2760;50.000;9.194;2023-04-10T04:31:44;16.60;;;11.37;;
5475;SDS011;2760;50.000;9.194;2023-04-10T04:34:35;17.50;;;9.93;;
5475;SDS011;2760;50.000;9.194;2023-04-10T04:37:12;18.67;;;9.87;;
5475;SDS011;2760;50.000;9.194;2023-04-10T04:39:52;15.43;;;10.27;;
5475;SDS011;2760;50.000;9.194;2023-04-10T04:42:34;19.40;;;11.10;;
5475;SDS011;2760;50.000;9.194;2023-04-10T04:45:14;17.90;;;10.60;;
5475;SDS011;2760;50.000;9.194;2023-04-10T04:47:41;14.77;;;10.20;;
5475;SDS011;2760;50.000;9.194;2023-04-10T04:50:19;15.63;;;10.27;;
5475;SDS011;2760;50.000;9.194;2023-04-10T04:53:12;17.70;;;10.90;;
5475;SDS011;2760;50.000;9.194;2023-04-10T04:55:59;21.07;;;11.97;;
5475;SDS011;2760;50.000;9.194;2023-04-10T04:58:47;20.27;;;11.20;;
5475;SDS011;2760;50.000;9.194;2023-04-10T05:01:14;19.23;;;11.00;;
5475;SDS011;2760;50.000;9.194;2023-04-10T05:04:08;22.83;;;12.27;;
5475;SDS011;2760;50.000;9.194;2023-04-10T05:07:02;19.03;;;11.80;;
5475;SDS011;2760;50.000;9.194;2023-04-10T05:09:50;18.10;;;11.97;;
5475;SDS011;2760;50.000;9.194;2023-04-10T05:12:36;19.50;;;11.77;;
5475;SDS011;2760;50.000;9.194;2023-04-10T05:15:29;18.60;;;11.93;;
5475;SDS011;2760;50.000;9.194;2023-04-10T05:18:15;23.43;;;12.63;;
5475;SDS011;2760;50.000;9.194;2023-04-10T05:21:06;21.63;;;13.00;;
5475;SDS011;2760;50.000;9.194;2023-04-10T05:23:52;19.13;;;11.57;;
5475;SDS011;2760;50.000;9.194;2023-04-10T05:26:45;19.10;;;11.07;;
5475;SDS011;2760;50.000;9.194;2023-04-10T05:29:33;20.60;;;12.50;;
5475;SDS011;2760;50.000;9.194;2023-04-10T05:32:14;23.47;;;13.83;;
5475;SDS011;2760;50.000;9.194;2023-04-10T05:35:16;24.00;;;13.47;;
5475;SDS011;2760;50.000;9.194;2023-04-10T05:37:52;18.80;;;11.30;;
5475;SDS011;2760;50.000;9.194;2023-04-10T05:40:35;19.30;;;12.53;;
5475;SDS011;2760;50.000;9.194;2023-04-10T05:43:28;18.17;;;11.63;;
5475;SDS011;2760;50.000;9.194;2023-04-10T05:46:31;23.10;;;12.63;;
5475;SDS011;2760;50.000;9.194;2023-04-10T05:49:09;22.03;;;12.70;;
5475;SDS011;2760;50.000;9.194;2023-04-10T05:51:57;24.23;;;13.77;;
5475;SDS011;2760;50.000;9.194;2023-04-10T05:54:36;22.17;;;14.43;;
5475;SDS011;2760;50.000;9.194;2023-04-10T05:57:22;28.17;;;13.17;;
5475;SDS011;2760;50.000;9.194;2023-04-10T06:00:17;25.13;;;14.40;;
5475;SDS011;2760;50.000;9.194;2023-04-10T06:03:07;19.40;;;12.10;;
5475;SDS011;2760;50.000;9.194;2023-04-10T06:05:47;21.83;;;12.70;;
5475;SDS011;2760;50.000;9.194;2023-04-10T06:08:14;19.37;;;12.50;;
5475;SDS011;2760;50.000;9.194;2023-04-10T06:10:41;25.20;;;14.27;;
5475;SDS011;2760;50.000;9.194;2023-04-10T06:13:10;20.60;;;13.00;;
5475;SDS011;2760;50.000;9.194;2023-04-10T06:15:37;25.33;;;12.40;;
5475;SDS011;2760;50.000;9.194;2023-04-10T06:18:04;22.17;;;14.00;;
5475;SDS011;2760;50.000;9.194;2023-04-10T06:20:31;22.17;;;13.47;;
5475;SDS011;2760;50.000;9.194;2023-04-10T06:22:59;18.97;;;13.10;;
5475;SDS011;2760;50.000;9.194;2023-04-10T06:25:26;21.87;;;13.33;;
5475;SDS011;2760;50.000;9.194;2023-04-10T06:27:54;18.00;;;12.43;;
5475;SDS011;2760;50.000;9.194;2023-04-10T06:30:21;21.27;;;12.50;;
5475;SDS011;2760;50.000;9.194;2023-04-10T06:32:48;18.00;;;12.23;;
5475;SDS011;2760;50.000;9.194;2023-04-10T06:35:15;18.57;;;12.37;;
5475;SDS011;2760;50.000;9.194;2023-04-10T06:37:43;20.40;;;11.97;;
5475;SDS011;2760;50.000;9.194;2023-04-10T06:40:12;18.37;;;12.53;;
5475;SDS011;2760;50.000;9.194;2023-04-10T06:42:40;19.47;;;11.63;;
5475;SDS011;2760;50.000;9.194;2023-04-10T06:45:21;17.50;;;11.20;;
5475;SDS011;2760;50.000;9.194;2023-04-10T06:47:48;15.93;;;11.40;;
5475;SDS011;2760;50.000;9.194;2023-04-10T06:50:15;17.60;;;12.10;;
5475;SDS011;2760;50.000;9.194;2023-04-10T06:52:42;20.20;;;12.93;;
5475;SDS011;2760;50.000;9.194;2023-04-10T06:55:12;21.37;;;12.70;;
5475;SDS011;2760;50.000;9.194;2023-04-10T06:57:39;19.90;;;13.37;;
5475;SDS011;2760;50.000;9.194;2023-04-10T07:00:07;20.00;;;12.27;;
5475;SDS011;2760;50.000;9.194;2023-04-10T07:02:34;16.93;;;11.97;;
5475;SDS011;2760;50.000;9.194;2023-04-10T07:05:01;17.73;;;11.87;;
5475;SDS011;2760;50.000;9.194;2023-04-10T07:07:28;16.20;;;11.20;;
5475;SDS011;2760;50.000;9.194;2023-04-10T07:09:55;18.03;;;11.70;;
5475;SDS011;2760;50.000;9.194;2023-04-10T07:12:24;19.43;;;12.80;;
5475;SDS011;2760;50.000;9.194;2023-04-10T07:14:51;17.10;;;12.47;;
5475;SDS011;2760;50.000;9.194;2023-04-10T07:17:18;15.80;;;11.50;;
5475;SDS011;2760;50.000;9.194;2023-04-10T07:19:45;16.77;;;12.07;;
5475;SDS011;2760;50.000;9.194;2023-04-10T07:22:12;14.63;;;10.43;;
5475;SDS011;2760;50.000;9.194;2023-04-10T07:24:39;16.13;;;10.83;;
5475;SDS011;2760;50.000;9.194;2023-04-10T07:27:07;18.77;;;10.47;;
5475;SDS011;2760;50.000;9.194;2023-04-10T07:29:35;16.17;;;11.27;;
5475;SDS011;2760;50.000;9.194;2023-04-10T07:32:02;15.23;;;10.60;;
5475;SDS011;2760;50.000;9.194;2023-04-10T07:34:30;21.20;;;11.30;;
5475;SDS011;2760;50.000;9.194;2023-04-10T07:36:57;14.00;;;10.00;;
5475;SDS011;2760;50.000;9.194;2023-04-10T07:39:24;16.60;;;10.60;;
5475;SDS011;2760;50.000;9.194;2023-04-10T07:41:51;16.83;;;11.20;;
5475;SDS011;2760;50.000;9.194;2023-04-10T07:44:19;14.10;;;10.57;;
5475;SDS011;2760;50.000;9.194;2023-04-10T07:46:48;16.53;;;11.37;;
5475;SDS011;2760;50.000;9.194;2023-04-10T07:49:16;13.77;;;10.50;;
5475;SDS011;2760;50.000;9.194;2023-04-10T07:51:43;15.37;;;10.10;;
5475;SDS011;2760;50.000;9.194;2023-04-10T07:54:10;15.10;;;11.20;;
5475;SDS011;2760;50.000;9.194;2023-04-10T07:56:37;15.00;;;10.50;;
5475;SDS011;2760;50.000;9.194;2023-04-10T07:59:04;12.87;;;8.37;;
5475;SDS011;2760;50.000;9.194;2023-04-10T08:01:31;13.20;;;9.30;;
5475;SDS011;2760;50.000;9.194;2023-04-10T08:04:00;11.70;;;9.53;;
5475;SDS011;2760;50.000;9.194;2023-04-10T08:06:27;13.10;;;8.73;;
5475;SDS011;2760;50.000;9.194;2023-04-10T08:08:54;13.30;;;7.90;;
5475;SDS011;2760;50.000;9.194;2023-04-10T08:11:21;11.00;;;8.20;;
5475;SDS011;2760;50.000;9.194;2023-04-10T08:13:49;15.70;;;8.13;;
5475;SDS011;2760;50.000;9.194;2023-04-10T08:16:17;11.10;;;7.70;;
5475;SDS011;2760;50.000;9.194;2023-04-10T08:18:45;9.90;;;7.70;;
5475;SDS011;2760;50.000;9.194;2023-04-10T08:21:14;11.93;;;7.87;;
5475;SDS011;2760;50.000;9.194;2023-04-10T08:23:41;12.97;;;8.90;;
5475;SDS011;2760;50.000;9.194;2023-04-10T08:26:08;9.60;;;7.20;;
5475;SDS011;2760;50.000;9.194;2023-04-10T08:28:35;12.27;;;8.90;;
5475;SDS011;2760;50.000;9.194;2023-04-10T08:31:02;10.40;;;8.00;;
5475;SDS011;2760;50.000;9.194;2023-04-10T08:33:29;8.60;;;6.47;;
5475;SDS011;2760;50.000;9.194;2023-04-10T08:35:56;9.00;;;7.73;;
5475;SDS011;2760;50.000;9.194;2023-04-10T08:38:24;10.53;;;7.67;;
5475;SDS011;2760;50.000;9.194;2023-04-10T08:40:52;11.30;;;8.10;;
5475;SDS011;2760;50.000;9.194;2023-04-10T08:43:20;10.57;;;7.60;;
5475;SDS011;2760;50.000;9.194;2023-04-10T08:45:47;9.93;;;7.33;;
5475;SDS011;2760;50.000;9.194;2023-04-10T08:48:15;10.07;;;7.30;;
5475;SDS011;2760;50.000;9.194;2023-04-10T08:50:45;9.90;;;7.30;;
5475;SDS011;2760;50.000;9.194;2023-04-10T08:53:13;8.67;;;6.90;;
5475;SDS011;2760;50.000;9.194;2023-04-10T08:55:43;8.50;;;6.20;;
5475;SDS011;2760;50.000;9.194;2023-04-10T08:58:11;7.83;;;6.17;;
5475;SDS011;2760;50.000;9.194;2023-04-10T09:00:38;7.40;;;6.40;;
5475;SDS011;2760;50.000;9.194;2023-04-10T09:03:07;9.50;;;6.40;;
5475;SDS011;2760;50.000;9.194;2023-04-10T09:05:38;6.63;;;5.90;;
5475;SDS011;2760;50.000;9.194;2023-04-10T09:08:06;11.00;;;5.57;;
5475;SDS011;2760;50.000;9.194;2023-04-10T09:10:33;8.63;;;5.80;;
5475;SDS011;2760;50.000;9.194;2023-04-10T09:13:02;6.67;;;5.43;;
5475;SDS011;2760;50.000;9.194;2023-04-10T09:15:29;6.47;;;5.07;;
5475;SDS011;2760;50.000;9.194;2023-04-10T09:17:57;6.23;;;5.50;;
5475;SDS011;2760;50.000;9.194;2023-04-10T09:20:25;6.50;;;5.50;;
5475;SDS011;2760;50.000;9.194;2023-04-10T09:22:54;5.50;;;4.87;;
5475;SDS011;2760;50.000;9.194;2023-04-10T09:25:28;8.93;;;5.60;;
5475;SDS011;2760;50.000;9.194;2023-04-10T09:28:02;5.80;;;4.77;;
5475;SDS011;2760;50.000;9.194;2023-04-10T09:30:32;5.07;;;4.57;;
5475;SDS011;2760;50.000;9.194;2023-04-10T09:33:20;5.00;;;4.53;;
5475;SDS011;2760;50.000;9.194;2023-04-10T09:35:48;7.23;;;6.33;;
5475;SDS011;2760;50.000;9.194;2023-04-10T09:38:18;6.37;;;5.00;;
5475;SDS011;2760;50.000;9.194;2023-04-10T09:40:47;7.77;;;4.80;;
5475;SDS011;2760;50.000;9.194;2023-04-10T09:43:19;5.60;;;4.60;;
5475;SDS011;2760;50.000;9.194;2023-04-10T09:45:52;5.67;;;5.07;;
5475;SDS011;2760;50.000;9.194;2023-04-10T09:48:23;6.53;;;5.10;;
5475;SDS011;2760;50.000;9.194;2023-04-10T09:50:51;5.10;;;4.60;;
5475;SDS011;2760;50.000;9.194;2023-04-10T09:53:19;6.00;;;5.23;;
5475;SDS011;2760;50.000;9.194;2023-04-10T09:55:46;5.83;;;5.07;;
5475;SDS011;2760;50.000;9.194;2023-04-10T09:58:15;5.80;;;5.20;;
5475;SDS011;2760;50.000;9.194;2023-04-10T10:00:44;6.23;;;4.90;;
5475;SDS011;2760;50.000;9.194;2023-04-10T10:03:13;5.00;;;4.33;;
5475;SDS011;2760;50.000;9.194;2023-04-10T10:05:41;6.17;;;4.83;;
5475;SDS011;2760;50.000;9.194;2023-04-10T10:08:11;6.73;;;5.53;;
5475;SDS011;2760;50.000;9.194;2023-04-10T10:10:39;4.40;;;3.93;;
5475;SDS011;2760;50.000;9.194;2023-04-10T10:13:11;6.70;;;5.73;;
5475;SDS011;2760;50.000;9.194;2023-04-10T10:15:43;7.67;;;5.17;;
5475;SDS011;2760;50.000;9.194;2023-04-10T10:18:19;8.13;;;6.03;;
5475;SDS011;2760;50.000;9.194;2023-04-10T10:21:04;9.47;;;7.87;;
5475;SDS011;2760;50.000;9.194;2023-04-10T10:23:34;6.30;;;5.70;;
5475;SDS011;2760;50.000;9.194;2023-04-10T10:26:03;6.97;;;5.23;;
5475;SDS011;2760;50.000;9.194;2023-04-10T10:28:31;7.53;;;5.70;;
5475;SDS011;2760;50.000;9.194;2023-04-10T10:31:01;5.60;;;5.00;;
5475;SDS011;2760;50.000;9.194;2023-04-10T10:33:28;6.50;;;5.30;;
5475;SDS011;2760;50.000;9.194;2023-04-10T10:35:58;5.23;;;4.73;;
5475;SDS011;2760;50.000;9.194;2023-04-10T10:38:26;5.93;;;5.20;;
5475;SDS011;2760;50.000;9.194;2023-04-10T10:40:53;6.63;;;4.90;;
5475;SDS011;2760;50.000;9.194;2023-04-10T10:43:26;5.60;;;5.07;;
5475;SDS011;2760;50.000;9.194;2023-04-10T10:46:05;5.83;;;5.20;;
5475;SDS011;2760;50.000;9.194;2023-04-10T10:48:35;5.50;;;4.80;;
5475;SDS011;2760;50.000;9.194;2023-04-10T10:51:02;7.30;;;5.10;;
5475;SDS011;2760;50.000;9.194;2023-04-10T10:53:33;5.73;;;5.13;;
5475;SDS011;2760;50.000;9.194;2023-04-10T10:59:03;6.60;;;5.13;;
5475;SDS011;2760;50.000;9.194;2023-04-10T11:01:32;5.30;;;4.70;;
5475;SDS011;2760;50.000;9.194;2023-04-10T11:03:59;6.50;;;5.40;;
5475;SDS011;2760;50.000;9.194;2023-04-10T11:12:12;6.97;;;5.90;;
5475;SDS011;2760;50.000;9.194;2023-04-10T11:14:39;5.33;;;4.70;;
5475;SDS011;2760;50.000;9.194;2023-04-10T11:17:09;4.90;;;4.27;;
5475;SDS011;2760;50.000;9.194;2023-04-10T11:22:23;6.67;;;4.90;;
5475;SDS011;2760;50.000;9.194;2023-04-10T11:24:52;6.67;;;5.57;;
5475;SDS011;2760;50.000;9.194;2023-04-10T11:27:42;5.73;;;4.97;;
5475;SDS011;2760;50.000;9.194;2023-04-10T11:33:11;5.43;;;4.23;;
5475;SDS011;2760;50.000;9.194;2023-04-10T11:35:51;7.33;;;4.50;;
5475;SDS011;2760;50.000;9.194;2023-04-10T11:38:18;7.60;;;3.93;;
5475;SDS011;2760;50.000;9.194;2023-04-10T11:40:56;5.10;;;4.10;;
5475;SDS011;2760;50.000;9.194;2023-04-10T11:43:28;4.03;;;3.63;;
5475;SDS011;2760;50.000;9.194;2023-04-10T11:45:59;4.23;;;3.83;;
5475;SDS011;2760;50.000;9.194;2023-04-10T11:48:28;4.47;;;4.07;;
5475;SDS011;2760;50.000;9.194;2023-04-10T11:50:56;4.40;;;3.53;;
5475;SDS011;2760;50.000;9.194;2023-04-10T11:53:25;5.20;;;3.83;;
5475;SDS011;2760;50.000;9.194;2023-04-10T11:55:54;4.30;;;3.90;;
5475;SDS011;2760;50.000;9.194;2023-04-10T11:58:22;3.90;;;3.50;;
5475;SDS011;2760;50.000;9.194;2023-04-10T12:00:54;4.87;;;4.30;;
5475;SDS011;2760;50.000;9.194;2023-04-10T12:03:33;4.23;;;3.70;;
5475;SDS011;2760;50.000;9.194;2023-04-10T12:06:02;4.33;;;3.93;;
5475;SDS011;2760;50.000;9.194;2023-04-10T12:08:31;4.83;;;4.30;;
5475;SDS011;2760;50.000;9.194;2023-04-10T12:10:59;4.57;;;4.10;;
5475;SDS011;2760;50.000;9.194;2023-04-10T12:13:28;4.73;;;4.13;;
5475;SDS011;2760;50.000;9.194;2023-04-10T12:15:57;4.87;;;4.40;;
5475;SDS011;2760;50.000;9.194;2023-04-10T12:18:26;3.80;;;3.50;;
5475;SDS011;2760;50.000;9.194;2023-04-10T12:20:55;4.17;;;3.77;;
5475;SDS011;2760;50.000;9.194;2023-04-10T12:23:23;4.37;;;3.63;;
5475;SDS011;2760;50.000;9.194;2023-04-10T12:25:50;4.77;;;4.20;;
5475;SDS011;2760;50.000;9.194;2023-04-10T12:28:19;5.07;;;4.37;;
5475;SDS011;2760;50.000;9.194;2023-04-10T12:30:47;6.03;;;4.53;;
5475;SDS011;2760;50.000;9.194;2023-04-10T12:33:20;5.87;;;5.07;;
5475;SDS011;2760;50.000;9.194;2023-04-10T12:35:47;5.57;;;4.00;;
5475;SDS011;2760;50.000;9.194;2023-04-10T12:38:17;4.70;;;4.00;;
5475;SDS011;2760;50.000;9.194;2023-04-10T12:41:00;5.60;;;4.47;;
5475;SDS011;2760;50.000;9.194;2023-04-10T12:43:31;3.93;;;3.60;;
5475;SDS011;2760;50.000;9.194;2023-04-10T12:46:01;4.00;;;3.60;;
5475;SDS011;2760;50.000;9.194;2023-04-10T12:48:30;4.07;;;3.60;;
5475;SDS011;2760;50.000;9.194;2023-04-10T12:50:57;4.20;;;3.53;;
5475;SDS011;2760;50.000;9.194;2023-04-10T12:53:26;4.33;;;3.90;;
5475;SDS011;2760;50.000;9.194;2023-04-10T12:56:00;4.10;;;3.70;;
5475;SDS011;2760;50.000;9.194;2023-04-10T12:58:29;3.97;;;3.60;;
5475;SDS011;2760;50.000;9.194;2023-04-10T13:00:57;4.30;;;3.70;;
5475;SDS011;2760;50.000;9.194;2023-04-10T13:03:25;3.83;;;3.53;;
5475;SDS011;2760;50.000;9.194;2023-04-10T13:05:52;7.53;;;3.77;;
5475;SDS011;2760;50.000;9.194;2023-04-10T13:08:20;4.43;;;4.03;;
5475;SDS011;2760;50.000;9.194;2023-04-10T13:10:48;4.10;;;3.70;;
5475;SDS011;2760;50.000;9.194;2023-04-10T13:13:16;4.43;;;3.50;;
5475;SDS011;2760;50.000;9.194;2023-04-10T13:15:43;4.20;;;3.70;;
5475;SDS011;2760;50.000;9.194;2023-04-10T13:18:10;3.70;;;3.40;;
5475;SDS011;2760;50.000;9.194;2023-04-10T13:20:37;3.40;;;3.10;;
5475;SDS011;2760;50.000;9.194;2023-04-10T13:23:06;3.40;;;3.10;;
5475;SDS011;2760;50.000;9.194;2023-04-10T13:25:36;3.40;;;2.87;;
5475;SDS011;2760;50.000;9.194;2023-04-10T13:28:06;4.93;;;3.17;;
5475;SDS011;2760;50.000;9.194;2023-04-10T13:30:35;4.00;;;3.60;;
5475;SDS011;2760;50.000;9.194;2023-04-10T13:33:03;3.50;;;3.13;;
5475;SDS011;2760;50.000;9.194;2023-04-10T13:35:30;4.37;;;3.50;;
5475;SDS011;2760;50.000;9.194;2023-04-10T13:37:57;4.63;;;3.70;;
5475;SDS011;2760;50.000;9.194;2023-04-10T13:40:25;4.07;;;3.40;;
5475;SDS011;2760;50.000;9.194;2023-04-10T13:42:52;3.43;;;3.13;;
5475;SDS011;2760;50.000;9.194;2023-04-10T13:45:21;3.47;;;3.17;;
5475;SDS011;2760;50.000;9.194;2023-04-10T13:47:48;3.43;;;3.13;;
5475;SDS011;2760;50.000;9.194;2023-04-10T13:50:15;3.70;;;3.30;;
5475;SDS011;2760;50.000;9.194;2023-04-10T13:52:43;4.90;;;3.53;;
5475;SDS011;2760;50.000;9.194;2023-04-10T13:55:10;4.40;;;3.70;;
5475;SDS011;2760;50.000;9.194;2023-04-10T13:57:37;3.77;;;2.90;;
5475;SDS011;2760;50.000;9.194;2023-04-10T14:00:05;3.70;;;3.40;;
5475;SDS011;2760;50.000;9.194;2023-04-10T14:02:40;3.70;;;3.40;;
5475;SDS011;2760;50.000;9.194;2023-04-10T14:05:07;4.63;;;3.60;;
5475;SDS011;2760;50.000;9.194;2023-04-10T14:07:35;3.47;;;3.13;;
5475;SDS011;2760;50.000;9.194;2023-04-10T14:10:02;3.70;;;2.90;;
5475;SDS011;2760;50.000;9.194;2023-04-10T14:12:29;3.80;;;3.33;;
5475;SDS011;2760;50.000;9.194;2023-04-10T14:14:56;4.03;;;3.60;;
5475;SDS011;2760;50.000;9.194;2023-04-10T14:17:24;3.33;;;3.03;;
5475;SDS011;2760;50.000;9.194;2023-04-10T14:19:53;3.33;;;3.07;;
5475;SDS011;2760;50.000;9.194;2023-04-10T14:22:20;2.70;;;2.50;;
5475;SDS011;2760;50.000;9.194;2023-04-10T14:24:47;2.97;;;2.63;;
5475;SDS011;2760;50.000;9.194;2023-04-10T14:27:14;3.30;;;2.67;;
5475;SDS011;2760;50.000;9.194;2023-04-10T14:29:41;3.40;;;2.70;;
5475;SDS011;2760;50.000;9.194;2023-04-10T14:32:08;4.53;;;2.80;;
5475;SDS011;2760;50.000;9.194;2023-04-10T14:34:35;6.23;;;2.80;;
5475;SDS011;2760;50.000;9.194;2023-04-10T14:37:04;3.43;;;2.90;;
5475;SDS011;2760;50.000;9.194;2023-04-10T14:39:31;2.83;;;2.57;;
5475;SDS011;2760;50.000;9.194;2023-04-10T14:42:00;2.53;;;2.37;;
5475;SDS011;2760;50.000;9.194;2023-04-10T14:44:27;2.40;;;2.30;;
5475;SDS011;2760;50.000;9.194;2023-04-10T14:46:55;3.33;;;2.90;;
5475;SDS011;2760;50.000;9.194;2023-04-10T14:49:22;3.03;;;2.83;;
5475;SDS011;2760;50.000;9.194;2023-04-10T14:51:48;3.10;;;2.80;;
5475;SDS011;2760;50.000;9.194;2023-04-10T14:54:17;3.40;;;3.10;;
5475;SDS011;2760;50.000;9.194;2023-04-10T14:56:46;5.80;;;3.10;;
5475;SDS011;2760;50.000;9.194;2023-04-10T14:59:13;4.57;;;3.40;;
5475;SDS011;2760;50.000;9.194;2023-04-10T15:01:40;3.53;;;3.23;;
5475;SDS011;2760;50.000;9.194;2023-04-10T15:04:07;3.53;;;3.23;;
5475;SDS011;2760;50.000;9.194;2023-04-10T15:06:35;3.57;;;3.10;;
5475;SDS011;2760;50.000;9.194;2023-04-10T15:09:03;2.97;;;2.77;;
5475;SDS011;2760;50.000;9.194;2023-04-10T15:11:31;3.70;;;3.40;;
5475;SDS011;2760;50.000;9.194;2023-04-10T15:13:58;3.50;;;3.20;;
5475;SDS011;2760;50.000;9.194;2023-04-10T15:16:26;3.30;;;3.00;;
5475;SDS011;2760;50.000;9.194;2023-04-10T15:18:53;3.40;;;3.10;;
5475;SDS011;2760;50.000;9.194;2023-04-10T15:21:20;3.63;;;3.27;;
5475;SDS011;2760;50.000;9.194;2023-04-10T15:23:47;4.03;;;3.47;;
5475;SDS011;2760;50.000;9.194;2023-04-10T15:26:14;3.70;;;2.90;;
5475;SDS011;2760;50.000;9.194;2023-04-10T15:28:43;3.00;;;2.80;;
5475;SDS011;2760;50.000;9.194;2023-04-10T15:31:10;3.23;;;2.93;;
5475;SDS011;2760;50.000;9.194;2023-04-10T15:33:37;2.90;;;2.70;;
5475;SDS011;2760;50.000;9.194;2023-04-10T15:36:05;7.67;;;3.03;;
5475;SDS011;2760;50.000;9.194;2023-04-10T15:38:32;3.00;;;2.70;;
5475;SDS011;2760;50.000;9.194;2023-04-10T15:41:00;2.90;;;2.67;;
5475;SDS011;2760;50.000;9.194;2023-04-10T15:43:32;3.10;;;2.77;;
5475;SDS011;2760;50.000;9.194;2023-04-10T15:46:01;3.07;;;2.73;;
5475;SDS011;2760;50.000;9.194;2023-04-10T15:48:28;3.40;;;3.10;;